Wetterstation Vordersexau
Wetterdaten: April 2016
Datum Temp. A. Feuchte A. Luftdruck Regen Wind Richtung Taupunkt Windchill Windben
01.04.2016 8,3 C 83 % 1013,6 hPa 0,4 l/m 1,5 km/h W-NW 5,6 C 8,2 C 0,9 km/h
02.04.2016 9,1 C 82 % 1013,6 hPa 0,0 l/m 0,2 km/h NW 6,1 C 9,1 C 0,1 km/h
03.04.2016 13,8 C 76 % 1009,4 hPa 0,4 l/m 1,1 km/h NW 9,4 C 13,7 C 0,6 km/h
04.04.2016 13,6 C 78 % 1006,2 hPa 0,8 l/m 0,4 km/h N-NO 9,6 C 13,6 C 0,2 km/h
05.04.2016 11,4 C 85 % 1006,6 hPa 10,4 l/m 1,8 km/h S-SO 8,9 C 11,0 C 1,0 km/h
06.04.2016 12,8 C 70 % 1011,7 hPa 1,2 l/m 7,9 km/h W 7,1 C 11,3 C 4,4 km/h
07.04.2016 9,3 C 76 % 1010,5 hPa 0,4 l/m 6,9 km/h SO 5,3 C 7,3 C 3,9 km/h
08.04.2016 9,1 C 70 % 1009,3 hPa 0,0 l/m 0,5 km/h O-SO 3,3 C 9,1 C 0,3 km/h
09.04.2016 8,0 C 77 % 1006,1 hPa 0,0 l/m 1,0 km/h S 4,0 C 7,8 C 0,5 km/h
10.04.2016 13,9 C 63 % 1007,0 hPa 0,0 l/m 4,0 km/h SO 6,1 C 13,2 C 2,2 km/h
11.04.2016 13,1 C 69 % 1007,8 hPa 4,1 l/m 2,1 km/h SO 7,0 C 12,8 C 1,2 km/h
12.04.2016 14,3 C 72 % 1008,5 hPa 5,0 l/m 1,1 km/h SO 8,9 C 14,2 C 0,6 km/h
13.04.2016 11,2 C 82 % 1006,6 hPa 3,7 l/m 3,6 km/h SO 8,1 C 10,4 C 2,0 km/h
14.04.2016 13,5 C 71 % 1010,0 hPa 0,8 l/m 4,4 km/h SO 7,8 C 12,7 C 2,5 km/h
15.04.2016 10,8 C 82 % 1006,6 hPa 14,1 l/m 4,3 km/h SO 7,8 C 9,7 C 2,4 km/h
16.04.2016 11,7 C 84 % 1003,3 hPa 12,0 l/m 7,0 km/h SO 9,0 C 10,0 C 3,9 km/h
17.04.2016 9,1 C 83 % 1008,4 hPa 17,8 l/m 1,5 km/h N-NO 6,3 C 8,7 C 0,8 km/h
18.04.2016 7,0 C 86 % 1018,2 hPa 5,0 l/m 0,8 km/h SO 4,8 C 6,8 C 0,4 km/h
19.04.2016 10,8 C 66 % 1023,2 hPa 0,0 l/m 0,7 km/h S 3,8 C 10,8 C 0,4 km/h
20.04.2016 14,0 C 60 % 1022,6 hPa 0,0 l/m 1,3 km/h SO 5,2 C 13,9 C 0,7 km/h
21.04.2016 13,4 C 65 % 1018,5 hPa 0,0 l/m 0,4 km/h W-NW 6,1 C 13,4 C 0,2 km/h
22.04.2016 15,3 C 66 % 1013,1 hPa 0,0 l/m 2,0 km/h N-NO 8,3 C 15,0 C 1,1 km/h
23.04.2016 8,7 C 84 % 1008,1 hPa 3,7 l/m 0,0 km/h N-NO 6,1 C 8,7 C 0,0 km/h
24.04.2016 5,8 C 75 % 1012,2 hPa 3,7 l/m 0,0 km/h N-NO 1,3 C 5,8 C 0,0 km/h
25.04.2016 5,1 C 80 % 1011,3 hPa 0,8 l/m 8,1 km/h W 1,8 C 2,2 C 4,5 km/h
26.04.2016 4,9 C 82 % 1003,7 hPa 10,8 l/m 9,5 km/h SO 2,1 C 1,6 C 5,3 km/h
27.04.2016 6,2 C 72 % 1009,5 hPa 0,4 l/m 10,2 km/h W 1,2 C 3,0 C 5,7 km/h
28.04.2016 6,4 C 72 % 1013,4 hPa 0,0 l/m 1,4 km/h O-SO 1,2 C 6,1 C 0,8 km/h
29.04.2016 9,8 C 64 % 1015,1 hPa 0,0 l/m 3,5 km/h SO 2,3 C 9,3 C 1,9 km/h
30.04.2016 10,5 C 69 % 1013,0 hPa 8,3 l/m 2,5 km/h W-NW 4,4 C 10,1 C 1,4 km/h
Min-Datum 28.04.16 20.04.16 16.04.16 20 Tage 01.04.16 - 28.04.16 27.04.16 01.04.16
Min-Zeit 03:41 17:41 04:41 - 00:41 - 03:41 04:41 00:41
Minimum -1,4 C 28 % 1001,8 hPa - 0,0 km/h - -3,4 C -8,2 C 0,0 km/h
Max-Datum 20.04.16 01.04.16 19.04.16 17.04.16 26.04.16 - 12.04.16 20.04.16 26.04.16
Max-Zeit 17:41 11:41 09:41 00:41 06:41 - 09:41 17:41 06:41
Maximum 30,4 C 88 % 1024,5 hPa 17,8 l/m 37,6 km/h
SO
- 13,6 C 30,4 C 20,9 km/h
SO
Durchschnitt 10,4 C 75 % 1010,9 hPa #104,0 l/m 3,0 km/h SO 5,6 C 9,6 C 1,7 km/h

Durchschnitt Minimum Temp.4,7 C
Durchschnitt Maximum Temp.18,3 C
www.sexauwetter.de